Portada
METAR-TAF:

METAR-TAF

Aeropuertos :

Base Aérea de Batajnica

Batajnica, Serbia

latitud: 44-56-07N, longitud: 020-15-27E, altitud: 86 m

Observación

El informe se hizo hace 24 minutos, a las 04:00 UTC
Viento 8 kt del este-noreste
Temperatura 2°C
Humedad 69%
Presión 1013 hPa
Visibilidad 10 km o más
sin nubes por debajo de 1500 m y sin presencia de cumulonimbus.

METAR: LYBT 250400Z 07008KT CAVOK 02/M03 Q1013 NOSIG

Hora: 05:24 (04:24 UTC)

Pronóstico

El informe se hizo hace 5 horas y 24 minutos, a las 23:00 UTC
Pronóstico válido del 25 a las 00 UTC al 25 a las 24 UTC
Viento 6 kt del este-sureste
Visibilidad 10 km o más
sin nubes por debajo de 1500 m y sin presencia de cumulonimbus.

TAF: LYBT 242300Z 2500/2524 12006KT CAVOK TX19/2513Z TNM00/2505Z

Observaciones y pronósticos meteorológicos de más de 4000 aeropuertos (mensajes METAR y TAF).

Los puntos amarillos y rojos representan las estaciones disponibles.

Ponga el ratón en el punto deseado para ver el nombre de la estación.

Haga clic para ver las observaciones y los pronósticos meteorológicos.

Para cambiar el mapa : haga clic en los botones verdes con una cruz de color negro para hacer un zoom, en el botón verde con un guión para alejar o en las flechas verdes para mapas adyacentes.


METAR-TAF: